Time;durP1;ratioP1;P1;durP2;ratioP2;P2;SDS_P1;SDS_P2;PMS_P1;PMS_P2;Temp;Humidity;BMP_temperature;BMP_pressure;BME280_temperature;BME280_humidity;BME280_pressure;Samples;Min_cycle;Max_cycle;Signal;HPM_P1;HPM_P2
2020/12/07 00:00:40;;;;;;;27.45;18.48;;;10.60;99.90;;;;;;5096429;28;20194;-79
2020/12/07 00:03:06;;;;;;;35.38;21.58;;;10.60;99.90;;;;;;5096300;28;20557;-79
2020/12/07 00:05:33;;;;;;;32.17;19.48;;;10.60;99.90;;;;;;5096398;28;20190;-79
2020/12/07 00:08:01;;;;;;;31.92;20.88;;;10.60;99.90;;;;;;5096514;28;20200;-79
2020/12/07 00:10:28;;;;;;;33.17;19.45;;;10.60;99.90;;;;;;5096142;28;20217;-79
2020/12/07 00:12:54;;;;;;;29.35;20.73;;;10.60;99.90;;;;;;5096175;28;20231;-79
2020/12/07 00:15:20;;;;;;;29.75;18.25;;;10.60;99.90;;;;;;5096054;28;20194;-79
2020/12/07 00:17:46;;;;;;;31.30;20.50;;;10.50;99.90;;;;;;5096135;28;20208;-80
2020/12/07 00:20:13;;;;;;;31.27;18.58;;;10.50;99.90;;;;;;5096350;28;20219;-79
2020/12/07 00:22:40;;;;;;;31.70;19.73;;;10.50;99.90;;;;;;5095905;28;20196;-79
2020/12/07 00:25:06;;;;;;;29.98;18.23;;;10.50;99.90;;;;;;5095976;28;20190;-79
2020/12/07 00:27:35;;;;;;;30.85;20.00;;;10.60;99.90;;;;;;5095876;28;20338;-79
2020/12/07 00:30:05;;;;;;;26.75;17.98;;;10.50;99.90;;;;;;5095827;28;20197;-80
2020/12/07 00:32:33;;;;;;;35.53;17.90;;;10.50;99.90;;;;;;5095765;28;20190;-79
2020/12/07 00:34:59;;;;;;;29.00;15.90;;;10.50;99.90;;;;;;5095834;28;20193;-79
2020/12/07 00:37:25;;;;;;;25.02;16.05;;;10.50;99.90;;;;;;5095887;28;20275;-79
2020/12/07 00:39:53;;;;;;;21.50;15.88;;;10.50;99.90;;;;;;5095624;28;20220;-80
2020/12/07 00:42:19;;;;;;;22.00;15.20;;;10.50;99.90;;;;;;5095758;28;20197;-79
2020/12/07 00:44:45;;;;;;;19.77;14.95;;;10.50;99.90;;;;;;5095365;28;20193;-79
2020/12/07 00:47:12;;;;;;;17.75;14.70;;;10.40;99.90;;;;;;5095575;28;20208;-79
2020/12/07 00:49:39;;;;;;;22.48;15.85;;;10.50;99.90;;;;;;5095684;28;20193;-80
2020/12/07 00:52:06;;;;;;;23.48;15.65;;;10.40;99.90;;;;;;5095239;28;20228;-79
2020/12/07 00:54:33;;;;;;;21.33;13.75;;;10.40;99.90;;;;;;5095582;28;20713;-79
2020/12/07 00:57:00;;;;;;;21.45;15.65;;;10.50;99.90;;;;;;5095506;28;20197;-79
2020/12/07 00:59:28;;;;;;;21.15;14.10;;;10.40;99.90;;;;;;5095399;28;20194;-79
2020/12/07 01:01:55;;;;;;;17.08;13.02;;;10.40;99.90;;;;;;5095141;28;20193;-79
2020/12/07 01:04:22;;;;;;;19.40;13.73;;;10.40;99.90;;;;;;5095182;28;20194;-79
2020/12/07 01:06:48;;;;;;;18.52;14.57;;;10.40;99.90;;;;;;5095361;28;20732;-79
2020/12/07 01:09:16;;;;;;;20.80;14.70;;;10.40;99.90;;;;;;5095105;28;20193;-80
2020/12/07 01:11:43;;;;;;;15.15;13.18;;;10.40;99.90;;;;;;5095000;28;20197;-79
2020/12/07 01:14:11;;;;;;;18.50;13.60;;;10.30;99.90;;;;;;5095022;28;20228;-79
2020/12/07 01:16:38;;;;;;;18.17;12.88;;;10.40;99.90;;;;;;5095019;28;20193;-79
2020/12/07 01:19:05;;;;;;;16.35;12.73;;;10.40;99.90;;;;;;5095037;28;20216;-79
2020/12/07 01:21:32;;;;;;;15.60;11.93;;;10.40;99.90;;;;;;5095028;28;20247;-79
2020/12/07 01:23:59;;;;;;;18.90;14.30;;;10.40;99.90;;;;;;5094745;28;20220;-79
2020/12/07 01:26:25;;;;;;;17.20;12.20;;;10.40;99.90;;;;;;5094709;28;20666;-79
2020/12/07 01:28:52;;;;;;;18.17;12.68;;;10.40;99.90;;;;;;5094689;28;20198;-79
2020/12/07 01:31:19;;;;;;;17.30;12.20;;;10.40;99.90;;;;;;5094694;28;20558;-79
2020/12/07 01:33:45;;;;;;;16.30;12.40;;;10.40;99.90;;;;;;5094506;28;20288;-79
2020/12/07 01:36:11;;;;;;;14.32;12.75;;;10.30;99.90;;;;;;5094595;28;20197;-80
2020/12/07 01:38:38;;;;;;;17.73;12.40;;;10.30;99.90;;;;;;5094600;28;20204;-79
2020/12/07 01:41:04;;;;;;;16.52;12.00;;;10.40;99.90;;;;;;5094509;28;20216;-79
2020/12/07 01:43:31;;;;;;;14.65;11.95;;;10.40;99.90;;;;;;5094462;28;20194;-79
2020/12/07 01:45:57;;;;;;;15.20;10.57;;;10.40;99.90;;;;;;5094414;28;20204;-79
2020/12/07 01:48:25;;;;;;;15.23;12.05;;;10.40;99.90;;;;;;5094360;28;20658;-80
2020/12/07 01:50:53;;;;;;;16.20;13.85;;;10.30;99.90;;;;;;5094000;28;20275;-79
2020/12/07 01:53:20;;;;;;;11.95;10.48;;;10.40;99.90;;;;;;5094341;28;20227;-79
2020/12/07 01:55:47;;;;;;;18.10;13.02;;;10.40;99.90;;;;;;5093731;28;20193;-80
2020/12/07 01:58:14;;;;;;;15.75;11.90;;;10.50;99.90;;;;;;5094292;28;20193;-79
2020/12/07 02:00:41;;;;;;;16.70;11.65;;;10.40;99.90;;;;;;5094024;28;20195;-79
2020/12/07 02:03:09;;;;;;;13.85;11.20;;;10.40;99.90;;;;;;5094044;28;20208;-79
2020/12/07 02:05:38;;;;;;;14.80;11.80;;;10.40;99.90;;;;;;5094074;28;20197;-79
2020/12/07 02:08:15;;;;;;;15.00;11.50;;;10.40;99.90;;;;;;5094071;28;20196;-79
2020/12/07 02:10:42;;;;;;;13.98;12.00;;;10.40;99.90;;;;;;5093857;28;20219;-79
2020/12/07 02:13:09;;;;;;;13.10;10.27;;;10.50;99.90;;;;;;5093885;28;20218;-79
2020/12/07 02:15:35;;;;;;;12.15;9.90;;;10.40;99.90;;;;;;5094196;28;20563;-79
2020/12/07 02:18:02;;;;;;;16.33;11.68;;;10.50;99.90;;;;;;5093986;28;20213;-79
2020/12/07 02:20:29;;;;;;;13.57;10.65;;;10.50;99.90;;;;;;5093716;28;20201;-79
2020/12/07 02:22:55;;;;;;;14.00;10.57;;;10.50;99.90;;;;;;5093791;28;20539;-79
2020/12/07 02:25:22;;;;;;;14.80;11.27;;;10.40;99.90;;;;;;5093693;28;20189;-79
2020/12/07 02:27:49;;;;;;;10.63;9.43;;;10.40;99.90;;;;;;5093787;28;20644;-79
2020/12/07 02:30:16;;;;;;;13.85;10.63;;;10.40;99.90;;;;;;5093659;28;20636;-79
2020/12/07 02:32:43;;;;;;;11.60;9.90;;;10.40;99.90;;;;;;5093484;28;20190;-79
2020/12/07 02:35:09;;;;;;;13.77;10.23;;;10.40;99.90;;;;;;5093441;28;20680;-79
2020/12/07 02:37:37;;;;;;;15.07;12.27;;;10.30;99.90;;;;;;5093604;28;20193;-79
2020/12/07 02:40:04;;;;;;;12.35;9.32;;;10.20;99.90;;;;;;5093383;28;20224;-79
2020/12/07 02:42:33;;;;;;;12.52;10.48;;;10.20;99.90;;;;;;5093473;28;20190;-79
2020/12/07 02:45:00;;;;;;;10.60;8.98;;;10.20;99.90;;;;;;5093512;28;20186;-80
2020/12/07 02:47:27;;;;;;;9.95;9.05;;;10.10;99.90;;;;;;5093564;28;20197;-79
2020/12/07 02:49:55;;;;;;;8.98;8.07;;;10.10;99.90;;;;;;5093495;28;20193;-79
2020/12/07 02:52:24;;;;;;;9.40;8.45;;;10.00;99.90;;;;;;5093320;28;20562;-80
2020/12/07 02:54:52;;;;;;;12.07;10.63;;;10.00;99.90;;;;;;5093417;28;20217;-79
2020/12/07 02:57:19;;;;;;;11.20;9.73;;;10.10;99.90;;;;;;5093496;28;20652;-79
2020/12/07 02:59:45;;;;;;;10.63;9.13;;;10.00;99.90;;;;;;5093304;28;20193;-79
2020/12/07 03:02:11;;;;;;;9.48;8.48;;;10.00;99.90;;;;;;5093255;28;20204;-79
2020/12/07 03:04:37;;;;;;;13.82;10.07;;;10.00;99.90;;;;;;5093416;28;20193;-79
2020/12/07 03:07:04;;;;;;;10.32;8.90;;;10.00;99.90;;;;;;5093608;28;20190;-79
2020/12/07 03:09:30;;;;;;;10.52;9.43;;;10.00;99.90;;;;;;5097385;28;20612;-79
2020/12/07 03:11:57;;;;;;;12.75;9.88;;;9.90;99.90;;;;;;5097302;28;20200;-79
2020/12/07 03:14:24;;;;;;;12.13;9.57;;;9.90;99.90;;;;;;5097398;28;20229;-79
2020/12/07 03:16:51;;;;;;;12.82;10.23;;;9.90;99.90;;;;;;5097511;28;20189;-79
2020/12/07 03:19:17;;;;;;;13.40;10.65;;;10.00;99.90;;;;;;5097165;28;20193;-79
2020/12/07 03:21:43;;;;;;;12.60;11.13;;;10.00;99.90;;;;;;5097060;28;20189;-79
2020/12/07 03:24:10;;;;;;;14.80;12.07;;;10.00;99.90;;;;;;5097245;28;20200;-79
2020/12/07 03:26:36;;;;;;;15.50;12.38;;;10.00;99.90;;;;;;5097153;28;20198;-78
2020/12/07 03:29:04;;;;;;;12.68;11.30;;;10.00;99.90;;;;;;5097150;28;20203;-79
2020/12/07 03:31:31;;;;;;;14.35;11.35;;;10.00;99.90;;;;;;5097034;28;20224;-79
2020/12/07 03:33:58;;;;;;;13.73;11.18;;;10.00;99.90;;;;;;5096901;28;20231;-80
2020/12/07 03:36:24;;;;;;;13.45;11.32;;;10.00;99.90;;;;;;5096937;28;20198;-79
2020/12/07 03:38:51;;;;;;;16.15;11.52;;;9.90;99.90;;;;;;5096903;28;20197;-79
2020/12/07 03:41:17;;;;;;;13.43;11.50;;;9.90;99.90;;;;;;5096905;28;20224;-79
2020/12/07 03:43:44;;;;;;;14.88;12.68;;;9.90;99.90;;;;;;5096670;28;20205;-79
2020/12/07 03:46:11;;;;;;;13.85;12.40;;;9.80;99.90;;;;;;5096897;28;20193;-79
2020/12/07 03:48:37;;;;;;;15.23;12.18;;;9.80;99.90;;;;;;5096944;28;20193;-79
2020/12/07 03:51:04;;;;;;;18.20;13.68;;;9.70;99.90;;;;;;5096332;28;20225;-80
2020/12/07 03:53:32;;;;;;;16.10;13.63;;;9.80;99.90;;;;;;5096801;28;20244;-79
2020/12/07 03:55:59;;;;;;;15.40;13.23;;;9.80;99.90;;;;;;5096519;28;20190;-79
2020/12/07 03:58:25;;;;;;;17.08;13.95;;;9.80;99.90;;;;;;5096745;28;20194;-79
2020/12/07 04:00:51;;;;;;;17.10;12.90;;;9.90;99.90;;;;;;5096419;28;20194;-79
2020/12/07 04:03:19;;;;;;;16.85;13.10;;;9.90;99.90;;;;;;5096259;28;20194;-79
2020/12/07 04:05:49;;;;;;;22.42;16.38;;;9.80;99.90;;;;;;5096420;28;20292;-79
2020/12/07 04:08:15;;;;;;;17.90;13.98;;;9.80;99.90;;;;;;5096308;28;20198;-79
2020/12/07 04:10:42;;;;;;;15.25;13.52;;;9.80;99.90;;;;;;5096322;28;20217;-79
2020/12/07 04:13:08;;;;;;;19.17;14.32;;;9.80;99.90;;;;;;5096226;28;20617;-79
2020/12/07 04:15:34;;;;;;;16.60;13.50;;;9.90;99.90;;;;;;5096337;28;20215;-79
2020/12/07 04:18:01;;;;;;;17.08;13.45;;;9.90;99.90;;;;;;5096296;28;20288;-79
2020/12/07 04:20:28;;;;;;;15.27;13.68;;;10.00;99.90;;;;;;5095384;28;20530;-79
2020/12/07 04:22:54;;;;;;;17.50;14.77;;;10.00;99.90;;;;;;5096004;28;20201;-79
2020/12/07 04:25:21;;;;;;;16.67;14.25;;;10.00;99.90;;;;;;5096089;28;20637;-79
2020/12/07 04:27:47;;;;;;;20.45;16.70;;;9.90;99.90;;;;;;5096021;28;20289;-79
2020/12/07 04:30:13;;;;;;;19.95;16.02;;;9.90;99.90;;;;;;5095910;28;20193;-79
2020/12/07 04:32:40;;;;;;;18.00;16.08;;;9.90;99.90;;;;;;5095854;28;20198;-79
2020/12/07 04:35:06;;;;;;;20.33;16.17;;;9.80;99.90;;;;;;5095764;28;20225;-80
2020/12/07 04:37:33;;;;;;;19.13;16.45;;;9.90;99.90;;;;;;5095611;28;20194;-79
2020/12/07 04:39:59;;;;;;;23.17;17.67;;;9.90;99.90;;;;;;5095708;28;20221;-80
2020/12/07 04:42:26;;;;;;;21.75;16.90;;;9.90;99.90;;;;;;5095839;28;20204;-79
2020/12/07 04:44:53;;;;;;;23.83;16.38;;;9.90;99.90;;;;;;5095716;28;20193;-79
2020/12/07 04:47:20;;;;;;;21.75;16.50;;;9.90;99.90;;;;;;5095672;28;20197;-78
2020/12/07 04:49:46;;;;;;;18.70;16.48;;;9.90;99.90;;;;;;5095660;28;20536;-79
2020/12/07 04:52:13;;;;;;;20.10;16.20;;;9.90;99.90;;;;;;5095460;28;20232;-79
2020/12/07 04:54:42;;;;;;;23.50;15.88;;;10.00;99.90;;;;;;5095566;28;20221;-78
2020/12/07 04:57:09;;;;;;;20.20;16.15;;;10.00;99.90;;;;;;5095631;28;20293;-79
2020/12/07 04:59:38;;;;;;;17.65;14.90;;;10.10;99.90;;;;;;5095442;28;20242;-79
2020/12/07 05:02:04;;;;;;;19.77;15.73;;;10.00;99.90;;;;;;5095268;28;20193;-79
2020/12/07 05:04:30;;;;;;;21.33;16.20;;;10.00;99.90;;;;;;5095365;28;20208;-79
2020/12/07 05:06:58;;;;;;;21.88;18.13;;;10.00;99.90;;;;;;5095348;28;20255;-79
2020/12/07 05:09:25;;;;;;;19.15;16.70;;;9.90;99.90;;;;;;5095045;28;20267;-79
2020/12/07 05:11:53;;;;;;;19.77;16.63;;;9.90;99.90;;;;;;5095251;28;20229;-79
2020/12/07 05:14:21;;;;;;;20.52;16.00;;;9.90;99.90;;;;;;5095069;28;20225;-79
2020/12/07 05:16:48;;;;;;;21.38;16.33;;;9.90;99.90;;;;;;5095267;28;20216;-79
2020/12/07 05:19:14;;;;;;;17.20;15.20;;;9.90;99.90;;;;;;5095111;28;20195;-79
2020/12/07 05:21:41;;;;;;;20.50;16.77;;;10.00;99.90;;;;;;5094869;28;20198;-79
2020/12/07 05:24:07;;;;;;;17.25;15.43;;;10.00;99.90;;;;;;5095089;28;20190;-79
2020/12/07 05:26:34;;;;;;;18.85;14.35;;;10.00;99.90;;;;;;5094799;28;20200;-79
2020/12/07 05:29:06;;;;;;;15.68;13.63;;;10.00;99.90;;;;;;5094883;28;20653;-79
2020/12/07 05:31:34;;;;;;;19.35;16.13;;;10.00;99.90;;;;;;5093726;28;20198;-79
2020/12/07 05:34:00;;;;;;;19.10;14.70;;;9.90;99.90;;;;;;5094654;28;20221;-79
2020/12/07 05:36:27;;;;;;;18.92;15.00;;;9.90;99.90;;;;;;5094755;28;20199;-79
2020/12/07 05:38:53;;;;;;;20.33;13.85;;;10.00;99.90;;;;;;5094583;28;20538;-79
2020/12/07 05:41:23;;;;;;;18.67;14.98;;;9.90;99.90;;;;;;5094454;28;20224;-79
2020/12/07 05:43:52;;;;;;;19.15;15.25;;;10.00;99.90;;;;;;5094526;28;20194;-79
2020/12/07 05:46:19;;;;;;;15.07;13.43;;;9.90;99.90;;;;;;5094643;28;20201;-79
2020/12/07 05:48:46;;;;;;;16.60;14.75;;;9.80;99.90;;;;;;5094368;28;20197;-79
2020/12/07 05:51:13;;;;;;;18.10;14.25;;;9.80;99.90;;;;;;5094116;28;20221;-79
2020/12/07 05:53:41;;;;;;;15.90;14.23;;;9.80;99.90;;;;;;5094318;28;20217;-79
2020/12/07 05:56:09;;;;;;;16.80;13.85;;;9.80;99.90;;;;;;5094410;28;20197;-79
2020/12/07 05:58:41;;;;;;;16.23;14.48;;;9.90;99.90;;;;;;5094242;28;20200;-79
2020/12/07 06:01:10;;;;;;;16.85;14.77;;;9.80;99.90;;;;;;5094220;28;20193;-79
2020/12/07 06:03:42;;;;;;;19.98;15.15;;;9.80;99.90;;;;;;5094094;28;20554;-79
2020/12/07 06:06:08;;;;;;;19.85;15.45;;;9.70;99.90;;;;;;5094155;28;20661;-79
2020/12/07 06:08:36;;;;;;;18.83;15.30;;;9.60;99.90;;;;;;5094136;28;20503;-79
2020/12/07 06:11:07;;;;;;;19.60;16.30;;;9.70;99.90;;;;;;5093961;28;20573;-79
2020/12/07 06:13:34;;;;;;;20.38;16.40;;;9.70;99.90;;;;;;5093820;28;20236;-79
2020/12/07 06:16:04;;;;;;;17.15;15.35;;;9.80;99.90;;;;;;5093996;28;20193;-80
2020/12/07 06:18:32;;;;;;;25.45;15.40;;;9.70;99.90;;;;;;5094028;28;20189;-79
2020/12/07 06:21:04;;;;;;;21.10;15.40;;;9.70;99.90;;;;;;5093893;28;20194;-79
2020/12/07 06:23:32;;;;;;;20.90;16.08;;;9.70;99.90;;;;;;5093872;28;20254;-79
2020/12/07 06:26:04;;;;;;;19.80;16.27;;;9.60;99.90;;;;;;5093929;28;20200;-79
2020/12/07 06:28:35;;;;;;;19.92;16.80;;;9.60;99.90;;;;;;5093744;28;20189;-79
2020/12/07 06:31:06;;;;;;;25.27;16.48;;;9.70;99.90;;;;;;5093802;28;20223;-79
2020/12/07 06:33:38;;;;;;;20.95;16.67;;;9.70;99.90;;;;;;5093583;28;20217;-79
2020/12/07 06:36:05;;;;;;;20.70;17.13;;;9.70;99.90;;;;;;5093666;28;20193;-79
2020/12/07 06:38:41;;;;;;;22.30;17.02;;;9.80;99.90;;;;;;5093625;28;20203;-79
2020/12/07 06:41:08;;;;;;;22.70;17.20;;;9.70;99.90;;;;;;5093342;28;20573;-80
2020/12/07 06:43:34;;;;;;;20.58;17.63;;;9.70;99.90;;;;;;5093237;28;20197;-79
2020/12/07 06:46:00;;;;;;;21.40;17.58;;;9.80;99.90;;;;;;5093604;28;20197;-79
2020/12/07 06:48:27;;;;;;;21.95;17.30;;;9.70;99.90;;;;;;5093540;28;20542;-79
2020/12/07 06:50:56;;;;;;;21.40;18.58;;;9.80;99.90;;;;;;5093182;28;20232;-79
2020/12/07 06:53:39;;;;;;;21.55;17.73;;;9.70;99.90;;;;;;5093002;28;22079;-79
2020/12/07 06:56:07;;;;;;;19.90;17.15;;;9.70;99.90;;;;;;5093595;28;20193;-79
2020/12/07 06:58:35;;;;;;;20.15;16.25;;;9.70;99.90;;;;;;5093392;28;20195;-80
2020/12/07 07:01:10;;;;;;;20.90;18.63;;;9.70;99.90;;;;;;5093482;28;20208;-79
2020/12/07 07:03:37;;;;;;;20.83;16.85;;;9.70;99.90;;;;;;5093070;28;20200;-79
2020/12/07 07:06:10;;;;;;;21.95;18.38;;;9.60;99.90;;;;;;5093291;28;20326;-79
2020/12/07 07:08:37;;;;;;;22.90;18.08;;;9.60;99.90;;;;;;5093141;28;20196;-79
2020/12/07 07:11:05;;;;;;;20.23;18.10;;;9.60;99.90;;;;;;5093251;28;20213;-79
2020/12/07 07:13:32;;;;;;;22.02;18.45;;;9.70;99.90;;;;;;5093224;28;20618;-79
2020/12/07 07:15:58;;;;;;;24.40;18.48;;;9.60;99.90;;;;;;5093281;28;20532;-79
2020/12/07 07:18:25;;;;;;;26.45;18.23;;;9.70;99.90;;;;;;5093023;28;20193;-79
2020/12/07 07:20:51;;;;;;;24.20;18.08;;;9.70;99.90;;;;;;5093245;28;20202;-79
2020/12/07 07:23:17;;;;;;;20.85;17.33;;;9.70;99.90;;;;;;5092968;28;20663;-79
2020/12/07 07:25:53;;;;;;;23.08;19.17;;;9.60;99.90;;;;;;5093167;28;20189;-79
2020/12/07 07:28:19;;;;;;;24.30;17.92;;;9.60;99.90;;;;;;5093189;28;20208;-79
2020/12/07 07:30:45;;;;;;;24.95;19.23;;;9.60;99.90;;;;;;5093112;28;20198;-79
2020/12/07 07:33:11;;;;;;;24.48;19.20;;;9.70;99.90;;;;;;5092845;28;20211;-79
2020/12/07 07:35:38;;;;;;;26.30;18.55;;;9.60;99.90;;;;;;5092897;28;20201;-79
2020/12/07 07:38:04;;;;;;;23.35;18.48;;;9.60;99.90;;;;;;5093064;28;20561;-79
2020/12/07 07:40:31;;;;;;;22.23;17.48;;;9.50;99.90;;;;;;5092862;28;20220;-79
2020/12/07 07:43:01;;;;;;;24.80;19.15;;;9.40;99.90;;;;;;5092526;28;20211;-79
2020/12/07 07:45:31;;;;;;;22.20;17.98;;;9.50;99.90;;;;;;5093178;28;20205;-79
2020/12/07 07:48:03;;;;;;;21.55;17.85;;;9.50;99.90;;;;;;5093010;28;20197;-79
2020/12/07 08:18:18;;;;;;;23.38;18.10;;;9.70;99.90;;;;;;5096309;28;20254;-79
2020/12/07 08:20:54;;;;;;;31.42;18.80;;;9.70;99.90;;;;;;5095956;28;20190;-80
2020/12/07 08:23:27;;;;;;;20.60;17.40;;;9.70;99.90;;;;;;5095921;28;20198;-80
2020/12/07 08:25:54;;;;;;;21.95;18.27;;;9.60;99.90;;;;;;5096204;28;20190;-80
2020/12/07 08:28:31;;;;;;;17.95;15.48;;;9.60;99.90;;;;;;5096085;28;20557;-79
2020/12/07 08:31:13;;;;;;;23.17;17.13;;;9.70;99.90;;;;;;5095955;28;20251;-80
2020/12/07 08:33:42;;;;;;;21.88;18.70;;;9.70;99.90;;;;;;5093866;28;20229;-80
2020/12/07 08:36:09;;;;;;;21.45;16.65;;;9.70;99.90;;;;;;5095781;28;20215;-79
2020/12/07 08:38:38;;;;;;;19.95;16.83;;;9.70;99.90;;;;;;5095738;28;20611;-79
2020/12/07 08:41:13;;;;;;;20.75;17.92;;;9.80;99.90;;;;;;5095767;28;20217;-79
2020/12/07 08:43:41;;;;;;;19.23;14.68;;;9.80;99.90;;;;;;5095553;28;20644;-79
2020/12/07 08:46:09;;;;;;;22.27;15.15;;;9.60;99.90;;;;;;5095661;28;20189;-79
2020/12/07 08:48:37;;;;;;;19.40;15.50;;;9.60;99.90;;;;;;5095800;28;20190;-79
2020/12/07 08:51:04;;;;;;;19.83;14.07;;;9.50;99.90;;;;;;5095343;28;20222;-79
2020/12/07 08:53:31;;;;;;;16.35;13.73;;;9.50;99.90;;;;;;5095587;28;20193;-79
2020/12/07 08:55:58;;;;;;;18.17;15.02;;;9.50;99.90;;;;;;5095509;28;20201;-79
2020/12/07 08:58:24;;;;;;;19.25;13.45;;;9.50;99.90;;;;;;5095579;28;20193;-79
2020/12/07 09:00:51;;;;;;;15.13;11.68;;;9.50;99.90;;;;;;5095543;28;20189;-79
2020/12/07 09:03:17;;;;;;;15.98;12.05;;;9.50;99.90;;;;;;5095362;28;20193;-79
2020/12/07 09:05:46;;;;;;;16.65;13.70;;;9.50;99.90;;;;;;5095000;28;20286;-79
2020/12/07 09:08:12;;;;;;;14.07;11.20;;;9.50;99.90;;;;;;5095080;28;20198;-79
2020/12/07 09:10:39;;;;;;;17.30;12.80;;;9.60;99.90;;;;;;5095094;28;20523;-79
2020/12/07 09:13:05;;;;;;;15.05;11.20;;;9.60;99.90;;;;;;5095129;28;20194;-79
2020/12/07 09:15:32;;;;;;;14.68;11.20;;;9.60;99.90;;;;;;5095143;28;20217;-79
2020/12/07 09:17:58;;;;;;;10.80;9.70;;;9.60;99.90;;;;;;5094969;28;20189;-79
2020/12/07 09:20:24;;;;;;;14.88;10.68;;;9.50;99.90;;;;;;5095046;28;20254;-79
2020/12/07 09:22:52;;;;;;;13.68;9.73;;;9.60;99.90;;;;;;5095022;28;20200;-79
2020/12/07 09:25:18;;;;;;;17.55;10.20;;;9.60;99.90;;;;;;5094950;28;20197;-79
2020/12/07 09:27:44;;;;;;;11.88;9.73;;;9.50;99.90;;;;;;5084493;28;20201;-79
2020/12/07 09:30:11;;;;;;;14.48;10.52;;;9.50;99.90;;;;;;5085302;28;20198;-78
2020/12/07 09:32:38;;;;;;;17.90;10.07;;;9.60;99.90;;;;;;5090994;28;20190;-80
2020/12/07 09:35:06;;;;;;;13.15;10.90;;;9.60;99.90;;;;;;5076962;28;20221;-79
2020/12/07 09:37:33;;;;;;;14.82;11.10;;;9.60;99.90;;;;;;5083582;28;20198;-79
2020/12/07 09:40:00;;;;;;;13.85;10.98;;;9.60;99.90;;;;;;5088242;28;20213;-79
2020/12/07 09:42:26;;;;;;;14.65;10.93;;;9.60;99.90;;;;;;5086997;28;20190;-79
2020/12/07 09:44:52;;;;;;;13.88;9.60;;;9.60;99.90;;;;;;5073237;28;20206;-79
2020/12/07 09:47:18;;;;;;;14.95;11.02;;;9.60;99.90;;;;;;5092816;28;20190;-79
2020/12/07 09:49:45;;;;;;;15.35;12.20;;;9.50;99.90;;;;;;5093584;28;20204;-79
2020/12/07 09:52:11;;;;;;;16.45;10.90;;;9.50;99.90;;;;;;5093524;28;20230;-80
2020/12/07 09:54:38;;;;;;;15.57;12.13;;;9.50;99.90;;;;;;5092721;28;20225;-80
2020/12/07 09:57:05;;;;;;;12.40;11.02;;;9.50;99.90;;;;;;5093391;28;20196;-80
2020/12/07 09:59:33;;;;;;;13.10;10.82;;;9.40;99.90;;;;;;5093193;28;20193;-79
2020/12/07 10:02:00;;;;;;;14.35;11.73;;;9.40;99.90;;;;;;5093373;28;20213;-79
2020/12/07 10:04:26;;;;;;;14.88;11.40;;;9.40;99.90;;;;;;5094351;28;20191;-79
2020/12/07 10:06:52;;;;;;;16.77;11.15;;;9.30;99.90;;;;;;5093967;28;20194;-79
2020/12/07 10:09:19;;;;;;;12.30;9.35;;;9.20;99.90;;;;;;5093886;28;20213;-78
2020/12/07 10:11:45;;;;;;;14.00;9.63;;;9.20;99.90;;;;;;5094036;28;20220;-79
2020/12/07 10:14:13;;;;;;;13.63;8.75;;;9.20;99.90;;;;;;5093848;28;20218;-79
2020/12/07 10:16:41;;;;;;;13.90;10.02;;;9.20;99.90;;;;;;5093629;28;20194;-78
2020/12/07 10:19:08;;;;;;;13.15;9.45;;;9.30;99.90;;;;;;5093353;28;20196;-78
2020/12/07 10:21:34;;;;;;;14.48;10.73;;;9.20;99.90;;;;;;5093862;28;20553;-79
2020/12/07 10:24:00;;;;;;;14.10;10.55;;;9.20;99.90;;;;;;5093285;28;20186;-78
2020/12/07 10:26:26;;;;;;;15.57;10.27;;;9.30;99.90;;;;;;5075985;28;20191;-79
2020/12/07 10:28:53;;;;;;;13.15;11.10;;;9.40;99.90;;;;;;5073509;28;20190;-78
2020/12/07 10:31:21;;;;;;;13.30;10.43;;;9.30;99.90;;;;;;5075953;28;20201;-79
2020/12/07 10:33:47;;;;;;;11.70;9.93;;;9.30;99.90;;;;;;5073349;28;20536;-79
2020/12/07 10:36:16;;;;;;;13.40;9.60;;;9.40;99.90;;;;;;5077858;28;20196;-78
2020/12/07 10:38:43;;;;;;;10.75;8.60;;;9.30;99.90;;;;;;5093100;28;20201;-79
2020/12/07 10:41:10;;;;;;;14.52;9.52;;;9.40;99.90;;;;;;5093555;28;20652;-79
2020/12/07 10:43:36;;;;;;;14.07;9.10;;;9.30;99.90;;;;;;5093325;28;20208;-78
2020/12/07 10:46:02;;;;;;;12.85;9.68;;;9.30;99.90;;;;;;5093433;28;20193;-78
2020/12/07 10:48:29;;;;;;;14.18;10.45;;;9.30;99.90;;;;;;5090433;28;20190;-78
2020/12/07 10:50:56;;;;;;;12.27;9.27;;;9.30;99.90;;;;;;5093174;28;20232;-78
2020/12/07 10:53:23;;;;;;;14.85;11.70;;;9.20;99.90;;;;;;5093480;28;20248;-79
2020/12/07 10:55:50;;;;;;;17.50;10.90;;;9.20;99.90;;;;;;5093648;28;20239;-79
2020/12/07 10:58:17;;;;;;;15.95;12.20;;;9.10;99.90;;;;;;5093378;28;20193;-79
2020/12/07 11:00:43;;;;;;;16.02;11.55;;;9.10;99.90;;;;;;5093415;28;20189;-79
2020/12/07 11:03:09;;;;;;;15.02;11.32;;;9.00;99.90;;;;;;5093128;28;20193;-79
2020/12/07 11:05:38;;;;;;;11.80;10.55;;;8.90;99.90;;;;;;5093284;28;20566;-78
2020/12/07 11:08:11;;;;;;;15.02;11.98;;;8.80;99.90;;;;;;5093389;28;20598;-78
2020/12/07 11:10:38;;;;;;;15.88;11.95;;;8.90;99.90;;;;;;5093291;28;20217;-78
2020/12/07 11:13:11;;;;;;;16.25;11.70;;;8.90;99.90;;;;;;5093134;28;20191;-79
2020/12/07 11:15:37;;;;;;;14.98;11.65;;;8.90;99.90;;;;;;5093258;28;20308;-79
2020/12/07 11:18:04;;;;;;;14.57;11.63;;;9.10;99.90;;;;;;5076430;28;20197;-78
2020/12/07 11:20:30;;;;;;;15.13;12.25;;;9.10;99.90;;;;;;5075006;28;20190;-78
2020/12/07 11:22:57;;;;;;;16.45;12.25;;;9.20;99.90;;;;;;5072976;28;20198;-78
2020/12/07 11:25:23;;;;;;;15.00;10.63;;;9.20;99.90;;;;;;5073058;28;20216;-78
2020/12/07 11:27:49;;;;;;;14.32;11.75;;;9.30;99.90;;;;;;5073103;28;20200;-79
2020/12/07 11:30:16;;;;;;;15.77;11.95;;;9.30;99.90;;;;;;5076809;28;20190;-78
2020/12/07 11:32:42;;;;;;;15.20;11.98;;;9.20;99.90;;;;;;5076897;28;20563;-79
2020/12/07 11:35:08;;;;;;;15.60;11.98;;;9.20;99.90;;;;;;5076668;28;20232;-78
2020/12/07 11:37:35;;;;;;;14.25;12.02;;;9.10;99.90;;;;;;5076648;28;20198;-79
2020/12/07 11:40:10;;;;;;;14.77;12.00;;;9.10;99.90;;;;;;5076633;28;20218;-78
2020/12/07 11:42:43;;;;;;;15.85;12.68;;;9.20;99.90;;;;;;5076540;28;20202;-78
2020/12/07 11:45:09;;;;;;;14.32;10.77;;;9.20;99.90;;;;;;5089446;28;20192;-78
2020/12/07 11:47:35;;;;;;;12.93;10.73;;;9.20;99.90;;;;;;5096799;28;20645;-78
2020/12/07 11:50:02;;;;;;;12.75;10.07;;;9.30;99.90;;;;;;5096452;28;20193;-79
2020/12/07 11:52:28;;;;;;;12.68;9.85;;;9.50;99.90;;;;;;5096894;28;20292;-78
2020/12/07 11:54:54;;;;;;;14.00;11.45;;;9.40;99.90;;;;;;5096768;28;20217;-78
2020/12/07 11:57:21;;;;;;;13.48;10.85;;;9.40;99.90;;;;;;5096676;28;20200;-78
2020/12/07 11:59:47;;;;;;;11.00;9.90;;;9.60;99.90;;;;;;5096437;28;20200;-78
2020/12/07 12:02:14;;;;;;;14.27;10.52;;;9.70;99.90;;;;;;5096485;28;20663;-78
2020/12/07 12:04:40;;;;;;;15.30;10.38;;;9.70;99.90;;;;;;5096371;28;20198;-78
2020/12/07 12:07:07;;;;;;;12.25;10.68;;;9.70;99.90;;;;;;5096444;28;20198;-78
2020/12/07 12:09:36;;;;;;;13.70;9.80;;;9.70;99.90;;;;;;5096296;28;20267;-78
2020/12/07 12:12:03;;;;;;;13.70;10.07;;;9.70;99.90;;;;;;5096335;28;20193;-79
2020/12/07 12:14:31;;;;;;;15.43;10.57;;;9.70;99.90;;;;;;5096290;28;20231;-78
2020/12/07 12:16:57;;;;;;;13.57;9.38;;;9.80;99.90;;;;;;5096407;28;20198;-78
2020/12/07 12:19:23;;;;;;;11.75;9.38;;;9.90;99.90;;;;;;5096160;28;20197;-78
2020/12/07 12:21:50;;;;;;;14.15;9.73;;;9.90;99.90;;;;;;5095973;28;20201;-78
2020/12/07 12:24:17;;;;;;;12.32;9.55;;;9.90;99.90;;;;;;5095923;28;20244;-79
2020/12/07 12:26:44;;;;;;;10.85;8.73;;;9.90;99.90;;;;;;5096016;28;20196;-78
2020/12/07 12:29:11;;;;;;;13.52;9.57;;;9.90;99.90;;;;;;5095997;28;20201;-79
2020/12/07 12:31:38;;;;;;;12.68;9.15;;;9.80;99.90;;;;;;5095783;28;20189;-78
2020/12/07 12:34:04;;;;;;;9.90;7.97;;;10.00;99.90;;;;;;5095893;28;20194;-79
2020/12/07 12:36:31;;;;;;;9.20;8.05;;;9.90;99.90;;;;;;5095792;28;20625;-78
2020/12/07 12:38:58;;;;;;;10.18;7.35;;;9.90;99.90;;;;;;5095684;28;20210;-79
2020/12/07 12:41:25;;;;;;;8.55;6.80;;;10.00;99.90;;;;;;5095108;28;20213;-79
2020/12/07 12:43:51;;;;;;;8.45;7.18;;;10.00;99.90;;;;;;5095566;28;20612;-79
2020/12/07 12:46:17;;;;;;;8.27;6.75;;;10.00;99.90;;;;;;5095819;28;20617;-79
2020/12/07 12:48:45;;;;;;;8.15;6.75;;;10.00;99.90;;;;;;5095587;28;20195;-79
2020/12/07 12:51:11;;;;;;;8.80;7.18;;;10.00;99.90;;;;;;5095451;28;20229;-79
2020/12/07 12:53:38;;;;;;;10.75;6.57;;;10.00;99.90;;;;;;5095713;28;20194;-80
2020/12/07 12:56:06;;;;;;;7.90;5.53;;;10.00;99.90;;;;;;5095575;28;20696;-79
2020/12/07 12:58:32;;;;;;;6.85;5.68;;;10.10;99.90;;;;;;5095405;28;20551;-79
2020/12/07 13:00:59;;;;;;;10.73;7.18;;;10.10;99.90;;;;;;5095433;28;20196;-79
2020/12/07 13:03:25;;;;;;;9.35;6.00;;;10.10;99.90;;;;;;5095172;28;20198;-79